Time;durP1;ratioP1;P1;durP2;ratioP2;P2;SDS_P1;SDS_P2;PMS_P1;PMS_P2;Temp;Humidity;BMP_temperature;BMP_pressure;BME280_temperature;BME280_humidity;BME280_pressure;Samples;Min_cycle;Max_cycle;Signal;HPM_P1;HPM_P2
2023/10/24 00:01:13;;;;;;;0.10;0.10;;;;;;;11.24;100.00;98256.31;4987060;28;20149;-59
2023/10/24 00:03:41;;;;;;;0.10;0.10;;;;;;;11.25;100.00;98254.41;4984435;28;20061;-60
2023/10/24 00:06:09;;;;;;;0.20;0.20;;;;;;;11.22;100.00;98261.13;4982911;28;20136;-60
2023/10/24 00:08:51;;;;;;;0.20;0.20;;;;;;;11.27;100.00;98258.44;4965051;28;20156;-60
2023/10/24 00:11:18;;;;;;;0.17;0.17;;;;;;;11.26;100.00;98256.84;4986662;28;20042;-59
2023/10/24 00:13:45;;;;;;;0.20;0.20;;;;;;;11.26;100.00;98262.19;4985248;28;20249;-60
2023/10/24 00:16:12;;;;;;;0.10;0.10;;;;;;;11.28;100.00;98253.88;4989486;28;20408;-60
2023/10/24 00:18:39;;;;;;;0.20;0.20;;;;;;;11.26;100.00;98238.06;4987470;28;20050;-60
2023/10/24 00:21:07;;;;;;;0.15;0.15;;;;;;;11.31;100.00;98248.78;4993180;28;20038;-60
2023/10/24 00:23:34;;;;;;;0.10;0.10;;;;;;;11.30;100.00;98241.00;4985160;28;20050;-60
2023/10/24 00:26:01;;;;;;;0.10;0.10;;;;;;;11.32;100.00;98245.00;4984388;28;20192;-60
2023/10/24 00:28:29;;;;;;;0.20;0.20;;;;;;;11.28;100.00;98249.31;4996232;28;20081;-60
2023/10/24 00:30:56;;;;;;;0.10;0.10;;;;;;;11.28;100.00;98248.50;4987485;28;20137;-59
2023/10/24 00:33:23;;;;;;;0.10;0.10;;;;;;;11.31;100.00;98248.78;5002044;28;20066;-59
2023/10/24 00:35:50;;;;;;;0.15;0.15;;;;;;;11.34;100.00;98253.59;4986317;28;20576;-60
2023/10/24 00:38:18;;;;;;;0.10;0.10;;;;;;;11.28;100.00;98253.88;4975779;28;20426;-59
2023/10/24 00:40:46;;;;;;;0.20;0.20;;;;;;;11.26;100.00;98256.84;4982657;28;20046;-59
2023/10/24 00:43:13;;;;;;;0.13;0.13;;;;;;;11.25;100.00;98249.84;4985041;28;20061;-59
2023/10/24 00:45:41;;;;;;;0.10;0.10;;;;;;;11.30;100.00;98249.84;4985646;28;20133;-59
2023/10/24 00:48:08;;;;;;;0.17;0.17;;;;;;;11.30;100.00;98247.16;4982761;28;21618;-59
2023/10/24 00:50:35;;;;;;;0.20;0.20;;;;;;;11.31;100.00;98243.41;4983907;28;20134;-59
2023/10/24 00:53:02;;;;;;;0.10;0.10;;;;;;;11.30;100.00;98246.34;4982904;28;20054;-59
2023/10/24 00:55:31;;;;;;;0.20;0.20;;;;;;;11.31;100.00;98242.63;4996865;28;20117;-60
2023/10/24 00:57:58;;;;;;;0.10;0.10;;;;;;;11.33;100.00;98243.97;4989670;28;20035;-60
2023/10/24 01:00:26;;;;;;;0.25;0.25;;;;;;;11.37;100.00;98249.56;4990765;28;20062;-60
2023/10/24 01:02:53;;;;;;;0.20;0.20;;;;;;;11.30;100.00;98236.44;4974921;28;20054;-60
2023/10/24 01:05:20;;;;;;;0.30;0.30;;;;;;;11.27;100.00;98242.34;4986599;28;20652;-60
2023/10/24 01:07:47;;;;;;;0.28;0.28;;;;;;;11.32;100.00;98239.66;4988306;28;20058;-60
2023/10/24 01:10:14;;;;;;;0.15;0.15;;;;;;;11.36;100.00;98230.00;4990362;28;20046;-60
2023/10/24 01:12:43;;;;;;;0.13;0.13;;;;;;;11.42;100.00;98228.88;4989267;28;20043;-60
2023/10/24 01:15:10;;;;;;;0.17;0.17;;;;;;;11.39;100.00;98229.44;4988099;28;20061;-59
2023/10/24 01:17:48;;;;;;;0.20;0.20;;;;;;;11.50;100.00;98230.22;4989381;28;20054;-59
2023/10/24 01:20:15;;;;;;;0.10;0.10;;;;;;;11.42;100.00;98234.25;4988939;28;20066;-59
2023/10/24 01:22:44;;;;;;;0.10;0.10;;;;;;;11.41;100.00;98232.66;4990848;28;20046;-60
2023/10/24 01:25:13;;;;;;;0.10;0.10;;;;;;;11.41;100.00;98232.66;4987514;28;20038;-60
2023/10/24 01:27:40;;;;;;;0.17;0.17;;;;;;;11.42;100.00;98233.47;4990920;28;20050;-60
2023/10/24 01:30:08;;;;;;;0.15;0.15;;;;;;;11.40;100.00;98224.88;4993052;28;20066;-60
2023/10/24 01:32:35;;;;;;;0.10;0.10;;;;;;;11.42;100.00;98228.09;4986843;28;20450;-59
2023/10/24 01:35:02;;;;;;;0.10;0.10;;;;;;;11.41;100.00;98232.66;4987173;28;20042;-61
2023/10/24 01:37:29;;;;;;;0.20;0.20;;;;;;;11.39;100.00;98239.38;4989709;28;20042;-60
2023/10/24 01:39:57;;;;;;;0.10;0.10;;;;;;;11.47;100.00;98240.69;4989929;28;20050;-59
2023/10/24 01:42:24;;;;;;;0.10;0.10;;;;;;;11.48;100.00;98234.25;4988167;28;20586;-60
2023/10/24 01:44:52;;;;;;;0.10;0.10;;;;;;;11.41;100.00;98234.56;5004334;28;20046;-61
2023/10/24 01:47:19;;;;;;;0.10;0.10;;;;;;;11.39;100.00;98232.13;4987884;28;20066;-60
2023/10/24 01:49:46;;;;;;;0.10;0.10;;;;;;;11.29;100.00;98234.84;4988922;28;20137;-60
2023/10/24 01:52:13;;;;;;;0.10;0.10;;;;;;;11.31;100.00;98237.25;4990706;28;20182;-60
2023/10/24 01:54:40;;;;;;;0.20;0.20;;;;;;;11.27;100.00;98239.66;4987344;28;20177;-60
2023/10/24 01:57:09;;;;;;;0.30;0.20;;;;;;;11.28;100.00;98232.41;4989198;28;20094;-60
2023/10/24 01:59:36;;;;;;;0.20;0.20;;;;;;;11.34;100.00;98237.50;4981344;28;20297;-60
2023/10/24 02:02:03;;;;;;;0.00;0.00;;;;;;;11.25;100.00;98228.38;5005550;28;20077;-60
2023/10/24 02:04:30;;;;;;;0.10;0.10;;;;;;;11.28;100.00;98224.38;4991129;28;20078;-60
2023/10/24 02:06:57;;;;;;;0.10;0.10;;;;;;;11.19;100.00;98229.47;4987141;28;20066;-60
2023/10/24 02:09:24;;;;;;;0.10;0.10;;;;;;;11.21;100.00;98232.72;4988683;28;20539;-60
2023/10/24 02:11:51;;;;;;;0.20;0.20;;;;;;;11.19;100.00;98234.84;4990096;28;20050;-60
2023/10/24 02:14:19;;;;;;;0.10;0.10;;;;;;;11.23;100.00;98219.81;4986627;28;20129;-60
2023/10/24 02:16:46;;;;;;;0.10;0.10;;;;;;;11.22;100.00;98227.06;4990221;28;20054;-59
2023/10/24 02:19:13;;;;;;;0.10;0.10;;;;;;;11.28;100.00;98219.78;4984223;28;20125;-59
2023/10/24 02:21:40;;;;;;;0.10;0.10;;;;;;;11.28;100.00;98222.47;4988327;28;20049;-60
2023/10/24 02:24:08;;;;;;;0.10;0.10;;;;;;;11.29;100.00;98217.94;4994324;28;20121;-60
2023/10/24 02:26:35;;;;;;;0.10;0.10;;;;;;;11.18;100.00;98209.09;4981751;28;20057;-59
2023/10/24 02:29:02;;;;;;;0.20;0.20;;;;;;;11.15;100.00;98223.84;4989876;28;20042;-60
2023/10/24 02:31:30;;;;;;;0.10;0.10;;;;;;;11.14;100.00;98242.91;4985514;28;20069;-60
2023/10/24 02:33:58;;;;;;;0.10;0.10;;;;;;;11.12;100.00;98251.22;4992070;28;20046;-60
2023/10/24 02:36:26;;;;;;;0.20;0.20;;;;;;;11.05;100.00;98239.16;4985595;28;20485;-60
2023/10/24 02:38:53;;;;;;;0.20;0.20;;;;;;;11.07;100.00;98231.66;4987137;28;20038;-60
2023/10/24 02:41:20;;;;;;;0.20;0.20;;;;;;;11.07;100.00;98243.16;4991895;28;20072;-60
2023/10/24 02:43:49;;;;;;;0.10;0.10;;;;;;;11.07;100.00;98240.47;4984214;28;20051;-60
2023/10/24 02:46:19;;;;;;;0.20;0.20;;;;;;;11.06;100.00;98236.22;4984006;28;20051;-60
2023/10/24 02:48:47;;;;;;;0.20;0.20;;;;;;;11.05;100.00;98241.84;4985020;28;20106;-60
2023/10/24 02:51:14;;;;;;;0.20;0.20;;;;;;;10.97;100.00;98238.63;5018996;28;20182;-60
2023/10/24 02:53:41;;;;;;;0.20;0.20;;;;;;;11.00;100.00;98238.06;4991030;28;20090;-60
2023/10/24 02:56:08;;;;;;;0.10;0.10;;;;;;;11.06;100.00;98232.69;4968404;28;20141;-60
2023/10/24 02:58:35;;;;;;;0.20;0.20;;;;;;;11.07;100.00;98242.38;5001387;28;20062;-60
2023/10/24 03:01:03;;;;;;;0.10;0.10;;;;;;;11.00;100.00;98235.38;4983148;28;20133;-60
2023/10/24 03:03:30;;;;;;;0.10;0.10;;;;;;;10.96;100.00;98228.97;4991021;28;20837;-60
2023/10/24 03:05:59;;;;;;;0.00;0.00;;;;;;;10.97;100.00;98227.09;4986207;28;20093;-60
2023/10/24 03:08:26;;;;;;;0.13;0.13;;;;;;;10.98;100.00;98234.88;4981203;28;20042;-60
2023/10/24 03:10:53;;;;;;;0.20;0.20;;;;;;;10.94;100.00;98236.47;4986829;28;20578;-60
2023/10/24 03:13:20;;;;;;;0.10;0.10;;;;;;;10.98;100.00;98229.50;4980126;28;20034;-60
2023/10/24 03:15:47;;;;;;;0.20;0.20;;;;;;;10.96;100.00;98236.22;4987618;28;20062;-60
2023/10/24 03:18:14;;;;;;;0.10;0.10;;;;;;;11.05;100.00;98231.09;4987547;28;20045;-60
2023/10/24 03:20:41;;;;;;;0.20;0.20;;;;;;;11.05;100.00;98234.59;4987981;28;20156;-59
2023/10/24 03:23:10;;;;;;;0.10;0.10;;;;;;;11.02;100.00;98246.66;4984683;28;20039;-60
2023/10/24 03:25:41;;;;;;;0.20;0.20;;;;;;;11.01;100.00;98242.38;4984455;28;20034;-60
2023/10/24 03:28:08;;;;;;;0.10;0.10;;;;;;;10.95;100.00;98246.13;4980095;28;20523;-60
2023/10/24 03:30:36;;;;;;;0.17;0.17;;;;;;;10.90;100.00;98243.44;5017617;28;20046;-60
2023/10/24 03:33:03;;;;;;;0.10;0.10;;;;;;;10.94;100.00;98239.16;4989744;28;20138;-60
2023/10/24 03:35:33;;;;;;;0.20;0.20;;;;;;;10.96;100.00;98231.66;4986206;28;20408;-60
2023/10/24 03:38:01;;;;;;;0.10;0.10;;;;;;;10.94;100.00;98231.13;4986318;28;20097;-60
2023/10/24 03:40:29;;;;;;;0.20;0.20;;;;;;;10.96;100.00;98226.28;4980273;28;20126;-60
2023/10/24 03:42:56;;;;;;;0.10;0.10;;;;;;;10.89;100.00;98225.75;4987626;28;20046;-60
2023/10/24 03:45:23;;;;;;;0.20;0.20;;;;;;;10.90;100.00;98231.91;4982056;28;20042;-60
2023/10/24 03:47:50;;;;;;;0.10;0.10;;;;;;;10.84;100.00;98228.44;4985101;28;20133;-60
2023/10/24 03:50:17;;;;;;;0.10;0.10;;;;;;;10.72;100.00;98230.56;4984122;28;20046;-60
2023/10/24 03:52:45;;;;;;;0.13;0.13;;;;;;;10.68;100.00;98219.56;4984819;28;20046;-60
2023/10/24 03:55:12;;;;;;;0.20;0.20;;;;;;;10.62;100.00;98209.13;4980409;28;20046;-60
2023/10/24 03:57:40;;;;;;;0.10;0.10;;;;;;;10.57;100.00;98221.44;4986224;28;20046;-60
2023/10/24 04:00:08;;;;;;;0.10;0.10;;;;;;;10.65;100.00;98219.31;4992585;28;20058;-60
2023/10/24 04:02:39;;;;;;;0.10;0.10;;;;;;;10.56;100.00;98225.22;4986783;28;20058;-60
2023/10/24 04:05:07;;;;;;;0.10;0.10;;;;;;;10.54;100.00;98237.25;4983891;28;20050;-60
2023/10/24 04:07:37;;;;;;;0.20;0.20;;;;;;;10.52;100.00;98228.69;4985745;28;20137;-60
2023/10/24 04:10:05;;;;;;;0.10;0.10;;;;;;;10.50;100.00;98239.66;4986250;28;20118;-60
2023/10/24 04:12:32;;;;;;;0.10;0.10;;;;;;;10.41;100.00;98230.56;4987945;28;20195;-60
2023/10/24 04:15:00;;;;;;;0.20;0.20;;;;;;;10.33;100.00;98236.41;4985667;28;20096;-60
2023/10/24 04:17:28;;;;;;;0.20;0.20;;;;;;;10.31;100.00;98234.00;4991384;28;20180;-60
2023/10/24 04:19:55;;;;;;;0.10;0.10;;;;;;;10.31;100.00;98231.34;4987562;28;20108;-60
2023/10/24 04:22:22;;;;;;;0.03;0.03;;;;;;;10.31;100.00;98228.66;4987285;28;20046;-60
2023/10/24 04:24:49;;;;;;;0.10;0.10;;;;;;;10.33;100.00;98228.38;4987602;28;20080;-60
2023/10/24 04:27:15;;;;;;;0.20;0.20;;;;;;;10.28;100.00;98231.03;4983097;28;20050;-60
2023/10/24 04:29:43;;;;;;;0.20;0.20;;;;;;;10.33;100.00;98228.38;4987513;28;20121;-60
2023/10/24 04:32:14;;;;;;;0.20;0.20;;;;;;;10.35;100.00;98215.53;4985999;28;20050;-60
2023/10/24 04:34:41;;;;;;;0.20;0.20;;;;;;;10.33;100.00;98217.66;4985553;28;20046;-59
2023/10/24 04:37:08;;;;;;;0.20;0.20;;;;;;;10.32;100.00;98216.06;4983798;28;20072;-59
2023/10/24 04:39:35;;;;;;;0.20;0.20;;;;;;;10.36;100.00;98219.84;4984438;28;20138;-60
2023/10/24 04:42:02;;;;;;;0.10;0.10;;;;;;;10.36;100.00;98217.16;4983012;28;20437;-60
2023/10/24 04:44:29;;;;;;;0.20;0.20;;;;;;;10.29;100.00;98219.28;4982667;28;20042;-59
2023/10/24 04:46:57;;;;;;;0.20;0.20;;;;;;;10.22;100.00;98224.84;4987452;28;20054;-60
2023/10/24 04:49:26;;;;;;;0.10;0.10;;;;;;;10.23;100.00;98228.31;4981627;28;20129;-60
2023/10/24 04:51:53;;;;;;;0.20;0.20;;;;;;;10.22;100.00;98224.06;4986939;28;20066;-60
2023/10/24 04:54:20;;;;;;;0.20;0.20;;;;;;;10.26;100.00;98217.91;4986039;28;20049;-60
2023/10/24 04:56:47;;;;;;;0.20;0.20;;;;;;;10.30;100.00;98223.56;4987082;28;20404;-60
2023/10/24 04:59:14;;;;;;;0.20;0.20;;;;;;;10.36;100.00;98228.66;4986117;28;20077;-60
2023/10/24 05:01:41;;;;;;;0.20;0.20;;;;;;;10.40;100.00;98218.22;4979325;28;20134;-60
2023/10/24 05:04:08;;;;;;;0.10;0.10;;;;;;;10.33;100.00;98213.13;4986373;28;20069;-60
2023/10/24 05:06:37;;;;;;;0.20;0.20;;;;;;;10.33;100.00;98206.94;4985296;28;20057;-60
2023/10/24 05:09:06;;;;;;;0.10;0.10;;;;;;;10.38;100.00;98212.31;4983565;28;20130;-60
2023/10/24 05:11:33;;;;;;;0.10;0.10;;;;;;;10.35;100.00;98215.53;4981231;28;20120;-60
2023/10/24 05:14:00;;;;;;;0.10;0.10;;;;;;;10.35;100.00;98215.53;4985693;28;20048;-60
2023/10/24 05:16:27;;;;;;;0.20;0.20;;;;;;;10.38;100.00;98193.56;5001173;28;20045;-60
2023/10/24 05:18:54;;;;;;;0.10;0.10;;;;;;;10.41;100.00;98193.06;4981115;28;20639;-60
2023/10/24 05:21:21;;;;;;;0.10;0.10;;;;;;;10.42;100.00;98188.50;4980456;28;20576;-59
2023/10/24 05:23:49;;;;;;;0.10;0.10;;;;;;;10.39;100.00;98179.13;4977899;28;20042;-60
2023/10/24 05:26:17;;;;;;;0.10;0.10;;;;;;;10.31;100.00;98175.09;4982401;28;20448;-60
2023/10/24 05:28:44;;;;;;;0.20;0.20;;;;;;;10.26;100.00;98164.34;4980009;28;20046;-60
2023/10/24 05:31:11;;;;;;;0.10;0.10;;;;;;;10.29;100.00;98165.72;4977152;28;20715;-60
2023/10/24 05:33:38;;;;;;;0.20;0.20;;;;;;;10.28;100.00;98161.41;4978710;28;20065;-60
2023/10/24 05:36:06;;;;;;;0.15;0.15;;;;;;;10.29;100.00;98163.03;4979410;28;20085;-60
2023/10/24 05:38:33;;;;;;;0.20;0.20;;;;;;;10.21;100.00;98168.88;4977787;28;20038;-60
2023/10/24 05:41:02;;;;;;;0.20;0.20;;;;;;;10.22;100.00;98168.63;4987380;28;20042;-60
2023/10/24 05:43:29;;;;;;;0.10;0.10;;;;;;;10.21;100.00;98169.69;4993966;28;20126;-60
2023/10/24 05:45:56;;;;;;;0.15;0.15;;;;;;;10.31;100.00;98168.94;4988893;28;20477;-60
2023/10/24 05:48:23;;;;;;;0.20;0.20;;;;;;;10.30;100.00;98164.63;4985997;28;20042;-60
2023/10/24 05:50:50;;;;;;;0.10;0.10;;;;;;;10.25;100.00;98159.25;4985350;28;20061;-60
2023/10/24 05:53:17;;;;;;;0.17;0.17;;;;;;;10.29;100.00;98173.75;4987971;28;20297;-60
2023/10/24 05:55:44;;;;;;;0.10;0.10;;;;;;;10.25;100.00;98172.63;4990303;28;20404;-60
2023/10/24 05:58:12;;;;;;;0.10;0.10;;;;;;;10.29;100.00;98179.09;4988474;28;20081;-60
2023/10/24 06:00:39;;;;;;;0.20;0.20;;;;;;;10.32;100.00;98165.19;4984814;28;20077;-59
2023/10/24 06:03:06;;;;;;;0.30;0.30;;;;;;;10.35;100.00;98162.75;4988289;28;20038;-60
2023/10/24 06:05:34;;;;;;;0.20;0.20;;;;;;;10.32;100.00;98165.19;4983823;28;20054;-60
2023/10/24 06:08:01;;;;;;;0.20;0.20;;;;;;;10.33;100.00;98164.09;4987142;28;20153;-60
2023/10/24 06:10:28;;;;;;;0.10;0.10;;;;;;;10.29;100.00;98152.31;4986989;28;20050;-60
2023/10/24 06:12:55;;;;;;;0.20;0.20;;;;;;;10.36;100.00;98150.19;4985677;28;20069;-60
2023/10/24 06:15:24;;;;;;;0.13;0.13;;;;;;;10.36;100.00;98158.22;4991024;28;20090;-60
2023/10/24 06:17:51;;;;;;;0.10;0.10;;;;;;;10.37;100.00;98157.16;4988727;28;20042;-60
2023/10/24 06:20:18;;;;;;;0.10;0.10;;;;;;;10.37;100.00;98154.47;4982807;28;20046;-60
2023/10/24 06:22:45;;;;;;;0.15;0.15;;;;;;;10.32;100.00;98151.78;4988622;28;20115;-60
2023/10/24 06:25:12;;;;;;;0.30;0.30;;;;;;;10.38;100.00;98156.06;4989134;28;20141;-60
2023/10/24 06:27:39;;;;;;;0.20;0.20;;;;;;;10.35;100.00;98151.25;4997256;28;20045;-60
2023/10/24 06:30:07;;;;;;;0.20;0.20;;;;;;;10.35;100.00;98145.88;4987831;28;20052;-59
2023/10/24 06:32:36;;;;;;;0.20;0.20;;;;;;;10.34;100.00;98144.28;4983214;28;20069;-60
2023/10/24 06:35:03;;;;;;;0.10;0.10;;;;;;;10.41;100.00;98149.38;4987225;28;20051;-60
2023/10/24 06:37:30;;;;;;;0.10;0.10;;;;;;;10.45;100.00;98145.88;4986721;28;20045;-60
2023/10/24 06:39:57;;;;;;;0.10;0.10;;;;;;;10.48;100.00;98144.56;4984343;28;20043;-60
2023/10/24 06:42:24;;;;;;;0.22;0.22;;;;;;;10.45;100.00;98145.88;4987160;28;20446;-60
2023/10/24 06:44:52;;;;;;;0.10;0.10;;;;;;;10.42;100.00;98145.63;4989981;28;20077;-60
2023/10/24 06:47:19;;;;;;;0.20;0.20;;;;;;;10.42;100.00;98143.75;4985748;28;20040;-60
2023/10/24 06:49:47;;;;;;;0.20;0.20;;;;;;;10.55;100.00;98145.88;4982529;28;20142;-60
2023/10/24 06:52:14;;;;;;;0.20;0.20;;;;;;;10.43;100.00;98152.59;4981755;28;20072;-60
2023/10/24 06:54:41;;;;;;;0.15;0.15;;;;;;;10.56;100.00;98152.88;4981918;28;20108;-60
2023/10/24 06:57:08;;;;;;;0.20;0.20;;;;;;;10.52;100.00;98146.44;4980451;28;20041;-60
2023/10/24 06:59:36;;;;;;;0.10;0.10;;;;;;;10.62;100.00;98152.88;4987727;28;20062;-60
2023/10/24 07:02:03;;;;;;;0.20;0.20;;;;;;;10.62;100.00;98155.53;4986426;28;20042;-60
2023/10/24 07:04:30;;;;;;;0.20;0.20;;;;;;;10.60;100.00;98147.75;4987699;28;20317;-60
2023/10/24 07:07:00;;;;;;;0.10;0.10;;;;;;;10.61;100.00;98148.56;4986055;28;20505;-60
2023/10/24 07:09:27;;;;;;;0.20;0.20;;;;;;;10.58;100.00;98150.72;4983869;28;20122;-60
2023/10/24 07:11:54;;;;;;;0.17;0.17;;;;;;;10.61;100.00;98153.91;4984705;28;20053;-60
2023/10/24 07:14:21;;;;;;;0.22;0.22;;;;;;;10.57;100.00;98156.34;4987780;28;20081;-59
2023/10/24 07:16:49;;;;;;;0.22;0.22;;;;;;;10.57;100.00;98159.81;4980616;28;20416;-60
2023/10/24 07:19:16;;;;;;;0.20;0.20;;;;;;;10.72;100.00;98160.91;4983256;28;20042;-60
2023/10/24 07:21:43;;;;;;;0.20;0.20;;;;;;;10.63;100.00;98167.88;4988115;28;20050;-60
2023/10/24 07:24:12;;;;;;;0.10;0.10;;;;;;;10.79;100.00;98166.78;4987098;28;20065;-60
2023/10/24 07:26:39;;;;;;;0.20;0.20;;;;;;;10.84;100.00;98174.81;4988547;28;20038;-60
2023/10/24 07:29:06;;;;;;;0.20;0.20;;;;;;;10.75;100.00;98176.44;4984932;28;20042;-60
2023/10/24 07:31:33;;;;;;;0.10;0.10;;;;;;;10.76;100.00;98180.75;4986246;28;20058;-60
2023/10/24 07:34:01;;;;;;;0.17;0.17;;;;;;;10.84;100.00;98185.56;4983885;28;20073;-60
2023/10/24 07:36:31;;;;;;;0.20;0.20;;;;;;;10.83;100.00;98183.94;4975844;28;20065;-60
2023/10/24 07:39:00;;;;;;;0.13;0.13;;;;;;;10.89;100.00;98188.22;4985534;28;20065;-60
2023/10/24 07:41:32;;;;;;;0.20;0.20;;;;;;;10.76;100.00;98189.56;4978490;28;20073;-60
2023/10/24 07:43:59;;;;;;;0.10;0.10;;;;;;;10.80;100.00;98189.84;4987686;28;20113;-60
2023/10/24 07:46:26;;;;;;;0.20;0.20;;;;;;;10.75;100.00;98197.88;4984837;28;20037;-60
2023/10/24 07:48:53;;;;;;;0.10;0.10;;;;;;;10.81;100.00;98202.19;4986527;28;20133;-60
2023/10/24 07:51:20;;;;;;;0.20;0.20;;;;;;;10.63;100.00;98205.38;4982461;28;20097;-60
2023/10/24 07:53:47;;;;;;;0.20;0.20;;;;;;;10.69;100.00;98193.59;4985631;28;20050;-60
2023/10/24 07:56:14;;;;;;;0.10;0.10;;;;;;;10.72;100.00;98193.06;4985207;28;20046;-60
2023/10/24 07:58:43;;;;;;;0.20;0.20;;;;;;;10.73;100.00;98189.28;4981580;28;20052;-60
2023/10/24 08:01:12;;;;;;;0.20;0.20;;;;;;;10.81;100.00;98180.72;4982450;28;20416;-60
2023/10/24 08:03:39;;;;;;;0.20;0.20;;;;;;;10.79;100.00;98188.22;4985657;28;20046;-60
2023/10/24 08:06:06;;;;;;;0.15;0.15;;;;;;;10.86;100.00;98188.78;4985217;28;20054;-60
2023/10/24 08:08:34;;;;;;;0.10;0.10;;;;;;;10.95;100.00;98184.44;4986585;28;20122;-60
2023/10/24 08:11:02;;;;;;;0.20;0.20;;;;;;;10.90;100.00;98194.38;4983831;28;20509;-60
2023/10/24 08:13:32;;;;;;;0.17;0.17;;;;;;;10.91;100.00;98196.00;4984961;28;20481;-60
2023/10/24 08:16:05;;;;;;;0.10;0.10;;;;;;;10.72;100.00;98204.56;4983570;28;20046;-60
2023/10/24 08:18:34;;;;;;;0.25;0.25;;;;;;;10.91;100.00;98220.94;4983057;28;20042;-60
2023/10/24 08:21:01;;;;;;;0.20;0.20;;;;;;;10.78;100.00;98221.44;4987070;28;20046;-60
2023/10/24 08:23:29;;;;;;;0.10;0.10;;;;;;;10.95;100.00;98234.59;4987777;28;20489;-60
2023/10/24 08:25:56;;;;;;;0.13;0.13;;;;;;;10.89;100.00;98227.63;4987312;28;20045;-60
2023/10/24 08:28:24;;;;;;;0.20;0.20;;;;;;;10.86;100.00;98226.31;4986103;28;20942;-60
2023/10/24 08:30:51;;;;;;;0.10;0.10;;;;;;;11.00;100.00;98216.63;4986046;28;20050;-60
2023/10/24 08:33:22;;;;;;;0.20;0.20;;;;;;;10.99;100.00;98209.66;4983783;28;20405;-60
2023/10/24 08:35:49;;;;;;;0.20;0.20;;;;;;;11.18;100.00;98217.13;4983548;28;20062;-60
2023/10/24 08:38:16;;;;;;;0.15;0.15;;;;;;;11.23;100.00;98214.44;4984129;28;20043;-60
2023/10/24 08:40:43;;;;;;;0.13;0.13;;;;;;;11.13;100.00;98222.50;4972873;28;20043;-60
2023/10/24 08:43:12;;;;;;;0.20;0.20;;;;;;;11.28;100.00;98222.47;4987025;28;20042;-60
2023/10/24 08:45:39;;;;;;;0.20;0.20;;;;;;;11.20;100.00;98209.63;4985252;28;20437;-60
2023/10/24 08:48:06;;;;;;;0.10;0.10;;;;;;;11.16;100.00;98208.56;4986426;28;20109;-60
2023/10/24 08:50:38;;;;;;;0.10;0.10;;;;;;;10.95;100.00;98211.25;4980482;28;20042;-60
2023/10/24 08:53:06;;;;;;;0.20;0.20;;;;;;;11.11;100.00;98206.69;4982731;28;20074;-60
2023/10/24 08:55:35;;;;;;;0.20;0.20;;;;;;;11.27;100.00;98210.16;4983524;28;20045;-60
2023/10/24 08:58:02;;;;;;;0.20;0.20;;;;;;;11.25;100.00;98211.50;4982084;28;20404;-60
2023/10/24 09:00:29;;;;;;;0.13;0.13;;;;;;;11.51;100.00;98209.56;4982801;28;20460;-60
2023/10/24 09:03:01;;;;;;;0.20;0.20;;;;;;;11.61;100.00;98209.53;4981802;28;20050;-60
2023/10/24 09:05:29;;;;;;;0.20;0.20;;;;;;;11.58;100.00;98210.06;4975660;28;20119;-60
2023/10/24 09:07:58;;;;;;;0.10;0.10;;;;;;;11.62;100.00;98211.94;4982019;28;20038;-60
2023/10/24 09:10:25;;;;;;;0.20;0.20;;;;;;;11.51;100.00;98214.94;4982870;28;20060;-60
2023/10/24 09:12:55;;;;;;;0.20;0.20;;;;;;;11.49;100.00;98214.41;4980307;28;20054;-60
2023/10/24 09:15:22;;;;;;;0.20;0.20;;;;;;;11.38;100.00;98211.75;4986425;28;20042;-60
2023/10/24 09:17:49;;;;;;;0.15;0.15;;;;;;;11.28;100.00;98202.91;4982722;28;20058;-60
2023/10/24 09:20:18;;;;;;;0.20;0.20;;;;;;;11.64;100.00;98200.94;4979800;28;20112;-60
2023/10/24 09:22:45;;;;;;;0.10;0.10;;;;;;;11.72;100.00;98196.88;4987156;28;20046;-60
2023/10/24 09:25:14;;;;;;;0.20;0.20;;;;;;;11.60;100.00;98197.19;4981058;28;20098;-60
2023/10/24 09:27:41;;;;;;;0.20;0.20;;;;;;;11.68;100.00;98195.81;4986461;28;20065;-60
2023/10/24 09:30:10;;;;;;;0.10;0.10;;;;;;;11.91;100.00;98203.25;4979489;28;20042;-60
2023/10/24 09:32:41;;;;;;;0.13;0.13;;;;;;;12.03;100.00;98194.88;4983797;28;20051;-60
2023/10/24 09:35:09;;;;;;;0.13;0.13;;;;;;;11.68;100.00;98183.19;4977803;28;20140;-60
2023/10/24 09:37:39;;;;;;;0.20;0.20;;;;;;;11.79;100.00;98178.59;4984530;28;20042;-60
2023/10/24 09:40:07;;;;;;;0.20;0.20;;;;;;;11.87;100.00;98184.19;4981351;28;20034;-60
2023/10/24 09:42:38;;;;;;;0.10;0.10;;;;;;;11.79;100.00;98183.97;4991749;28;20571;-60
2023/10/24 09:45:07;;;;;;;0.10;0.10;;;;;;;11.91;100.00;98186.34;4984792;28;20129;-60
2023/10/24 09:47:34;;;;;;;0.20;0.20;;;;;;;11.98;100.00;98181.47;4983014;28;20330;-60
2023/10/24 09:50:02;;;;;;;0.10;0.10;;;;;;;12.12;100.00;98182.47;4983191;28;20052;-60
2023/10/24 09:52:29;;;;;;;0.10;0.10;;;;;;;11.91;100.00;98175.63;4986684;28;20049;-60
2023/10/24 09:54:57;;;;;;;0.10;0.10;;;;;;;11.79;100.00;98168.66;4980500;28;20062;-60
2023/10/24 09:57:24;;;;;;;0.10;0.10;;;;;;;11.94;100.00;98172.38;4986838;28;20050;-60
2023/10/24 09:59:54;;;;;;;0.10;0.10;;;;;;;11.79;100.00;98176.69;4985778;28;20046;-60
2023/10/24 10:02:23;;;;;;;0.10;0.10;;;;;;;11.79;100.00;98168.66;4996466;28;20047;-60
2023/10/24 10:04:50;;;;;;;0.10;0.10;;;;;;;11.68;100.00;98167.06;4984824;28;20046;-60
2023/10/24 10:07:18;;;;;;;0.15;0.15;;;;;;;11.87;100.00;98165.41;4977937;28;20053;-60
2023/10/24 10:09:47;;;;;;;0.10;0.10;;;;;;;11.95;100.00;98163.22;4978633;28;20050;-60
2023/10/24 10:12:17;;;;;;;0.20;0.20;;;;;;;11.54;100.00;98156.16;4981804;28;20057;-60
2023/10/24 10:14:53;;;;;;;0.10;0.10;;;;;;;11.83;100.00;98153.59;4986325;28;20382;-60
2023/10/24 10:17:25;;;;;;;0.10;0.10;;;;;;;11.85;100.00;98162.16;4988244;28;20046;-60
2023/10/24 10:20:01;;;;;;;0.10;0.10;;;;;;;11.96;100.00;98154.09;4986455;28;20050;-60
2023/10/24 10:22:38;;;;;;;0.20;0.20;;;;;;;12.22;100.00;98144.00;4985156;28;20501;-60
2023/10/24 10:25:32;;;;;;;0.13;0.13;;;;;;;12.31;100.00;98131.56;4986042;28;20461;-60
2023/10/24 10:28:04;;;;;;;0.20;0.20;;;;;;;12.45;100.00;98137.91;4982147;28;20045;-60
2023/10/24 10:30:37;;;;;;;0.10;0.10;;;;;;;13.19;100.00;98128.88;4987565;28;20118;-60
2023/10/24 10:33:11;;;;;;;0.10;0.10;;;;;;;12.92;100.00;98124.84;4984575;28;20058;-60
2023/10/24 10:35:46;;;;;;;0.10;0.10;;;;;;;13.24;100.00;98126.13;4984814;28;20038;-60
2023/10/24 10:38:14;;;;;;;0.15;0.10;;;;;;;12.97;100.00;98122.13;4987050;28;20413;-60
2023/10/24 10:40:41;;;;;;;0.20;0.20;;;;;;;13.21;100.00;98129.41;4988374;28;20038;-60
2023/10/24 10:43:08;;;;;;;0.17;0.17;;;;;;;13.32;100.00;98117.47;4986572;28;20500;-60
2023/10/24 10:45:37;;;;;;;0.10;0.10;;;;;;;12.93;100.00;98121.09;4987064;28;20488;-60
2023/10/24 10:48:07;;;;;;;0.15;0.15;;;;;;;13.10;100.00;98112.56;4986335;28;20512;-60
2023/10/24 10:50:35;;;;;;;0.10;0.10;;;;;;;13.13;100.00;98109.31;4985564;28;20497;-60
2023/10/24 10:53:25;;;;;;;0.10;0.10;;;;;;;13.39;100.00;98112.53;4987803;28;20929;-60
2023/10/24 10:56:00;;;;;;;0.10;0.10;;;;;;;12.92;100.00;98103.34;4987046;28;20038;-60
2023/10/24 10:58:34;;;;;;;0.20;0.20;;;;;;;13.20;100.00;98103.56;5018667;28;20362;-60
2023/10/24 11:01:04;;;;;;;0.10;0.10;;;;;;;12.94;100.00;98091.22;4988334;28;20039;-60
2023/10/24 11:03:42;;;;;;;0.10;0.10;;;;;;;13.10;100.00;98096.41;4987370;28;20072;-60
2023/10/24 11:06:10;;;;;;;0.10;0.10;;;;;;;13.44;100.00;98099.00;4983117;28;20055;-60
2023/10/24 11:08:37;;;;;;;0.10;0.10;;;;;;;13.27;100.00;98098.69;4987938;28;20042;-60
2023/10/24 11:11:07;;;;;;;0.10;0.10;;;;;;;13.31;100.00;98097.81;4986701;28;20046;-61
2023/10/24 11:13:44;;;;;;;0.10;0.10;;;;;;;13.11;100.00;98085.38;4983655;28;20113;-60
2023/10/24 11:16:13;;;;;;;0.10;0.10;;;;;;;13.48;100.00;98083.91;4981014;28;20065;-60
2023/10/24 11:18:40;;;;;;;0.10;0.10;;;;;;;13.66;100.00;98078.81;4981872;28;20069;-60
2023/10/24 11:21:09;;;;;;;0.10;0.10;;;;;;;13.61;100.00;98060.03;4981173;28;20054;-60
2023/10/24 11:23:37;;;;;;;0.13;0.13;;;;;;;13.62;100.00;98064.31;4990416;28;20034;-60
2023/10/24 11:26:04;;;;;;;0.10;0.10;;;;;;;13.77;100.00;98066.81;4988961;28;20097;-60
2023/10/24 11:28:32;;;;;;;0.10;0.10;;;;;;;13.76;100.00;98062.53;4976205;28;20050;-59